Skip Navigation Links Skip Navigation Links

Current Weather

Griffin-Spalding County, Griffin, Ga.

For information only: do not use for flight planning or navigation.
Latest weather
Observation time Wednesday, January 27, 2021 11:35 AM EST
Local time Wednesday, January 27, 2021 12:18 PM EST
Flight conditions Visual Meteorological Conditions
Winds
Wind direction Southeast (130°)
Wind speed 3 mph
Visibility 10 mi.
Sky condition
Ceiling 5,500 ft. broken clouds
Cloud layer scattered clouds 500 ft.
Cloud layer scattered clouds 2,500 ft.
Cloud layer broken clouds 5,500 ft.
Temperature 54°F
Dewpoint 52°F
Altimeter 30.07 in.Hg
Derived measurements
Relative humidity 94%
Density altitude 615 ft.
Remarks
Fully automated report.
Automated weather observing station with precipitation discriminator.
METAR K6A2 271635Z AUTO 13003KT 10SM SCT005 SCT025 BKN055 12/11 A3007 RMK AO2

Settings

Location code

InnerDrive.Weather 4.0.6770.0 Release CLR 4.0.30319.42000
Copyright ©2018 Inner Drive Technology. All rights reserved. Portions Copyright ©1986-2018 David Braverman.

Find weather

Site navigation


Skip Navigation Links

Place info

Page info

PayPal - The safer, easier way to pay online!

Return home.

Copyright ©2021 Inner Drive Technology. Purveyors of fine, hand-crafted computer software. Page printed 2021-01-27T17:18:36 UTC.